Strona główna
METAR-TAF:

METAR-TAF

Lotnisko :

Entrammes

Laval, Francja

Szerokość geograficzna: 48-01-56N, Długość geograficzna: 000-44-34W, wysokość: 101 m

Aktualna obserwacja pogody

Raport powstał 43 minut temu, godzina 23:30 UTC
Wiatr 4 kt od południowy zachód, zmienny między południe i zachód
Temperatura 24°C
Wilgotność 69%
Ciśnienie 1013 hPa
Widzialność 10 km lub więcej
Brak chmur poniżej 1500 m i brak chmur cumulonimbus

METAR: LFOV 232330Z AUTO 22004KT 190V260 CAVOK 24/18 Q1013

czas: 02:13 (00:13 UTC)


TAF: brakujący

Obserwacja i prognoza pogody dla ponad 4000 lotnisk (raport METAR i TAF).

Dostępne stacje oznaczono żółtymi i czerwonymi punktami na mapie.

Najedź kursorem aby zobaczyć nazwę stacji.

Kliknij aby zobaczyć obserwacje i prognozy pogody.

Aby zmienić mapę: kliknij na zielony przycisk z czarnym krzyżykiem, aby powiększyć; na zielony przycisk z myślnikiem, aby pomniejszyć; na zielone strzałki, aby przejść do map sąsiednich.


METAR-TAF: